Navios*hios — SXJH — position and weather

sailwx.info

Track history (hours):
 
Tides and Currents Weather Stations Pressure Air Temp Water Temp Dewpoint Dewpoint Depression Visibility Wind Speed Wind Dir Waves Ship Positions

Navios*hios

Last reported at 2017-Nov-16 00:20 UTC. Time now 2017-Dec-13 13:09 UTC.
Position S 32°45' W 071°38'.
Warning: this ship's position is 27 days out of date.

Length 190 m; draft 6.5 m.

Type: Cargo ship. MMSI: 240149000.

Date/timePositionNaut miles runAvg speedWind from/ knotsBaromVisibWave heightAir tempDewpointWater temp
2017-Nov-16 00:20S 32°45' W 071°38'413.4
2017-Nov-16 00:00S 32°49' W 071°37'713.3
2017-Nov-15 23:30S 32°56' W 071°37'510.7
2017-Nov-15 23:00S 33°01' W 071°36'1 2.4
2017-Nov-15 22:29S 33°02' W 071°38'0 0.0
2017-Nov-15 21:56S 33°02' W 071°38'0 0.0
2017-Nov-15 21:29S 33°02' W 071°38'0 0.0
2017-Nov-15 20:59S 33°02' W 071°38'0 0.0
2017-Nov-15 20:29S 33°02' W 071°38'0 0.0
2017-Nov-15 19:47S 33°02' W 071°38'0 0.0
2017-Nov-15 19:08S 33°02' W 071°38'0 0.0
2017-Nov-15 18:41S 33°02' W 071°38'0 0.0
2017-Nov-15 18:26S 33°02' W 071°38'0 0.0
2017-Nov-15 17:59S 33°02' W 071°38'0 0.0
2017-Nov-15 17:17S 33°02' W 071°38'0 0.0
2017-Nov-15 16:53S 33°02' W 071°38'0 0.0
2017-Nov-15 16:29S 33°02' W 071°38'0 0.0
2017-Nov-15 15:59S 33°02' W 071°38'0 0.0
2017-Nov-15 10:41S 33°02' W 071°38'0 0.0
2017-Nov-15 10:08S 33°02' W 071°38'0 0.0
2017-Nov-15 05:29S 33°02' W 071°38'0 0.0
2017-Nov-14 14:05S 33°02' W 071°38'0 0.0
2017-Nov-14 13:44S 33°02' W 071°38'0 0.0
2017-Nov-14 13:29S 33°02' W 071°38'0 0.0
2017-Nov-14 12:53S 33°02' W 071°38'0 0.0
2017-Nov-14 12:29S 33°02' W 071°38'0 0.0
2017-Nov-14 11:26S 33°02' W 071°38'0 0.0
2017-Nov-14 10:59S 33°02' W 071°38'0 0.0
2017-Nov-14 10:29S 33°02' W 071°38'0 0.0
2017-Nov-14 05:02S 33°02' W 071°38'0 0.0
2017-Nov-14 04:56S 33°02' W 071°38'0 0.0
2017-Nov-14 04:26S 33°02' W 071°38'0 0.0
2017-Nov-14 03:35S 33°02' W 071°38'0 0.0
2017-Nov-14 03:26S 33°02' W 071°38'0 0.0
2017-Nov-14 02:50S 33°02' W 071°38'0 0.0
2017-Nov-14 02:20S 33°02' W 071°38'0 0.0
2017-Nov-14 01:56S 33°02' W 071°38'0 0.0
2017-Nov-13 21:47S 33°02' W 071°37'0 0.0
2017-Nov-12 23:53S 33°02' W 071°38'0 0.3
2017-Nov-12 23:26S 33°02' W 071°37'1 2.3
2017-Nov-12 22:59S 33°01' W 071°37'3 5.6
2017-Nov-12 22:30S 32°59' W 071°38'3 5.6
2017-Nov-12 22:00S 32°56' W 071°39'2 4.6
2017-Nov-12 21:30S 32°54' W 071°39'3 5.8
2017-Nov-12 21:00S 32°51' W 071°40'3 6.2
2017-Nov-12 20:30S 32°48' W 071°42'5 9.3
2017-Nov-12 20:00S 32°44' W 071°43'  
Track history (hours):
 
Tides and Currents Weather Stations Pressure Air Temp Water Temp Dewpoint Dewpoint Depression Visibility Wind Speed Wind Dir Waves Ship Positions

Navios*hios

Last reported at 2017-Nov-16 00:20 UTC. Time now 2017-Dec-13 13:09 UTC.
Position S 32°45' W 071°38'.
Warning: this ship's position is 27 days out of date.

Length 190 m; draft 6.5 m.

Type: Cargo ship. MMSI: 240149000.

Date/timePositionNaut miles runAvg speedWind from/ knotsBaromVisibWave heightAir tempDewpointWater temp
2017-Nov-16 00:20S 32°45' W 071°38'413.4
2017-Nov-16 00:00S 32°49' W 071°37'713.3
2017-Nov-15 23:30S 32°56' W 071°37'510.7
2017-Nov-15 23:00S 33°01' W 071°36'1 2.4
2017-Nov-15 22:29S 33°02' W 071°38'0 0.0
2017-Nov-15 21:56S 33°02' W 071°38'0 0.0
2017-Nov-15 21:29S 33°02' W 071°38'0 0.0
2017-Nov-15 20:59S 33°02' W 071°38'0 0.0
2017-Nov-15 20:29S 33°02' W 071°38'0 0.0
2017-Nov-15 19:47S 33°02' W 071°38'0 0.0
2017-Nov-15 19:08S 33°02' W 071°38'0 0.0
2017-Nov-15 18:41S 33°02' W 071°38'0 0.0
2017-Nov-15 18:26S 33°02' W 071°38'0 0.0
2017-Nov-15 17:59S 33°02' W 071°38'0 0.0
2017-Nov-15 17:17S 33°02' W 071°38'0 0.0
2017-Nov-15 16:53S 33°02' W 071°38'0 0.0
2017-Nov-15 16:29S 33°02' W 071°38'0 0.0
2017-Nov-15 15:59S 33°02' W 071°38'0 0.0
2017-Nov-15 10:41S 33°02' W 071°38'0 0.0
2017-Nov-15 10:08S 33°02' W 071°38'0 0.0
2017-Nov-15 05:29S 33°02' W 071°38'0 0.0
2017-Nov-14 14:05S 33°02' W 071°38'0 0.0
2017-Nov-14 13:44S 33°02' W 071°38'0 0.0
2017-Nov-14 13:29S 33°02' W 071°38'0 0.0
2017-Nov-14 12:53S 33°02' W 071°38'0 0.0
2017-Nov-14 12:29S 33°02' W 071°38'0 0.0
2017-Nov-14 11:26S 33°02' W 071°38'0 0.0
2017-Nov-14 10:59S 33°02' W 071°38'0 0.0
2017-Nov-14 10:29S 33°02' W 071°38'0 0.0
2017-Nov-14 05:02S 33°02' W 071°38'0 0.0
2017-Nov-14 04:56S 33°02' W 071°38'0 0.0
2017-Nov-14 04:26S 33°02' W 071°38'0 0.0
2017-Nov-14 03:35S 33°02' W 071°38'0 0.0
2017-Nov-14 03:26S 33°02' W 071°38'0 0.0
2017-Nov-14 02:50S 33°02' W 071°38'0 0.0
2017-Nov-14 02:20S 33°02' W 071°38'0 0.0
2017-Nov-14 01:56S 33°02' W 071°38'0 0.0
2017-Nov-13 21:47S 33°02' W 071°37'0 0.0
2017-Nov-12 23:53S 33°02' W 071°38'0 0.3
2017-Nov-12 23:26S 33°02' W 071°37'1 2.3
2017-Nov-12 22:59S 33°01' W 071°37'3 5.6
2017-Nov-12 22:30S 32°59' W 071°38'3 5.6
2017-Nov-12 22:00S 32°56' W 071°39'2 4.6
2017-Nov-12 21:30S 32°54' W 071°39'3 5.8
2017-Nov-12 21:00S 32°51' W 071°40'3 6.2
2017-Nov-12 20:30S 32°48' W 071°42'5 9.3
2017-Nov-12 20:00S 32°44' W 071°43'  

Dump ship's entire track history